Time;durP1;ratioP1;P1;durP2;ratioP2;P2;SDS_P1;SDS_P2;PMS_P1;PMS_P2;Temp;Humidity;BMP_temperature;BMP_pressure;BME280_temperature;BME280_humidity;BME280_pressure;Samples;Min_cycle;Max_cycle;Signal;HPM_P1;HPM_P2
2022/02/21 00:01:43;;;;;;;0.20;0.20;;;;;;;;;;5029159;28;20025;-74
2022/02/21 00:04:08;;;;;;;0.27;0.27;;;;;;;;;;5029578;28;20148;-73
2022/02/21 00:06:33;;;;;;;0.57;0.40;;;;;;;;;;5030102;28;20224;-72
2022/02/21 00:08:59;;;;;;;0.67;0.40;;;;;;;;;;5029651;28;20517;-72
2022/02/21 00:11:24;;;;;;;0.50;0.40;;;;;;;;;;5020969;28;20395;-71
2022/02/21 00:13:49;;;;;;;4.00;0.70;;;;;;;;;;5029696;28;20026;-74
2022/02/21 00:16:14;;;;;;;0.70;0.70;;;;;;;;;;5028308;28;20024;-71
2022/02/21 00:18:40;;;;;;;1.50;0.50;;;;;;;;;;5033852;28;20026;-71
2022/02/21 00:21:06;;;;;;;1.57;0.77;;;;;;;;;;5027619;28;20021;-71
2022/02/21 00:23:31;;;;;;;3.07;1.00;;;;;;;;;;5023892;28;20028;-72
2022/02/21 00:25:56;;;;;;;2.40;0.80;;;;;;;;;;5024371;28;20021;-71
2022/02/21 00:28:22;;;;;;;1.33;0.60;;;;;;;;;;5021678;28;20022;-72
2022/02/21 00:30:47;;;;;;;1.67;0.60;;;;;;;;;;5023436;28;20029;-71
2022/02/21 00:33:12;;;;;;;3.03;0.80;;;;;;;;;;5025717;28;20029;-72
2022/02/21 00:35:37;;;;;;;1.07;0.60;;;;;;;;;;5019786;28;20590;-72
2022/02/21 00:38:03;;;;;;;0.80;0.50;;;;;;;;;;5028832;28;20064;-71
2022/02/21 00:40:28;;;;;;;0.70;0.50;;;;;;;;;;5026396;28;20029;-72
2022/02/21 00:42:53;;;;;;;1.60;0.63;;;;;;;;;;5020447;28;20333;-71
2022/02/21 00:45:18;;;;;;;0.90;0.60;;;;;;;;;;5025494;28;20032;-72
2022/02/21 00:47:44;;;;;;;3.63;0.80;;;;;;;;;;5030577;28;20060;-71
2022/02/21 00:50:10;;;;;;;9.30;1.30;;;;;;;;;;5025357;28;20036;-73
2022/02/21 00:52:35;;;;;;;17.27;1.07;;;;;;;;;;5034698;28;20116;-74
2022/02/21 00:55:00;;;;;;;0.20;0.20;;;;;;;;;;5031638;28;20182;-73
2022/02/21 00:57:25;;;;;;;0.20;0.20;;;;;;;;;;5027698;28;20360;-73
2022/02/21 00:59:51;;;;;;;1.57;0.97;;;;;;;;;;5029541;28;20021;-73
2022/02/21 01:02:16;;;;;;;0.70;0.70;;;;;;;;;;5035366;28;20283;-74
2022/02/21 01:04:41;;;;;;;15.03;1.83;;;;;;;;;;5039809;28;20424;-73
2022/02/21 01:07:07;;;;;;;0.50;0.50;;;;;;;;;;5027490;28;20021;-71
2022/02/21 01:09:32;;;;;;;0.37;0.37;;;;;;;;;;5039044;28;20036;-72
2022/02/21 01:11:57;;;;;;;0.20;0.20;;;;;;;;;;5032781;28;20493;-72
2022/02/21 01:14:23;;;;;;;0.20;0.20;;;;;;;;;;5034124;28;20029;-71
2022/02/21 01:16:48;;;;;;;4.77;1.00;;;;;;;;;;5035111;28;20141;-72
2022/02/21 01:19:13;;;;;;;5.33;1.33;;;;;;;;;;5029927;28;20482;-73
2022/02/21 01:21:38;;;;;;;2.53;0.90;;;;;;;;;;5025308;28;20024;-73
2022/02/21 01:24:04;;;;;;;5.63;1.13;;;;;;;;;;5027501;28;20029;-72
2022/02/21 01:26:29;;;;;;;8.73;1.87;;;;;;;;;;5031520;28;21291;-72
2022/02/21 01:28:54;;;;;;;5.83;1.77;;;;;;;;;;5030689;28;20413;-72
2022/02/21 01:31:20;;;;;;;1.97;0.60;;;;;;;;;;5032152;28;20029;-72
2022/02/21 01:33:45;;;;;;;10.30;1.73;;;;;;;;;;5023336;28;20085;-72
2022/02/21 01:36:11;;;;;;;14.43;1.63;;;;;;;;;;5027799;28;20016;-71
2022/02/21 01:38:36;;;;;;;7.00;1.20;;;;;;;;;;5034240;28;20029;-72
2022/02/21 01:41:02;;;;;;;6.50;1.97;;;;;;;;;;5030688;28;20092;-71
2022/02/21 01:43:27;;;;;;;6.40;0.93;;;;;;;;;;5024246;28;20250;-72
2022/02/21 01:45:52;;;;;;;4.73;0.90;;;;;;;;;;5027859;28;20037;-71
2022/02/21 01:48:18;;;;;;;3.13;1.23;;;;;;;;;;5024500;28;20205;-71
2022/02/21 01:50:43;;;;;;;8.10;1.00;;;;;;;;;;5032049;28;20490;-71
2022/02/21 01:53:09;;;;;;;4.13;1.13;;;;;;;;;;5039915;28;20056;-71
2022/02/21 01:55:34;;;;;;;10.37;1.60;;;;;;;;;;5031256;28;20603;-72
2022/02/21 01:57:59;;;;;;;3.37;1.10;;;;;;;;;;5036134;28;20094;-72
2022/02/21 02:00:24;;;;;;;7.50;1.67;;;;;;;;;;5035171;28;20025;-72
2022/02/21 02:02:50;;;;;;;12.00;1.43;;;;;;;;;;5023708;28;20265;-72
2022/02/21 02:05:16;;;;;;;2.63;1.00;;;;;;;;;;5032935;23;20085;-66
2022/02/21 02:07:43;;;;;;;4.43;0.90;;;;;;;;;;5021537;28;20078;-67
2022/02/21 02:10:08;;;;;;;5.10;1.33;;;;;;;;;;5034554;28;20021;-66
2022/02/21 02:12:34;;;;;;;6.33;0.90;;;;;;;;;;5023206;28;20033;-66
2022/02/21 02:14:59;;;;;;;5.43;1.07;;;;;;;;;;5023435;28;20749;-67
2022/02/21 02:17:25;;;;;;;11.47;1.53;;;;;;;;;;5033663;28;20481;-67
2022/02/21 02:19:50;;;;;;;5.47;1.00;;;;;;;;;;5026711;28;20875;-67
2022/02/21 02:22:17;;;;;;;14.53;2.30;;;;;;;;;;5026561;28;20085;-67
2022/02/21 02:24:43;;;;;;;5.27;1.10;;;;;;;;;;5023439;28;20508;-67
2022/02/21 02:27:09;;;;;;;5.17;1.10;;;;;;;;;;5026749;28;20026;-67
2022/02/21 02:29:34;;;;;;;8.87;1.90;;;;;;;;;;5018894;28;20053;-66
2022/02/21 02:31:59;;;;;;;8.63;1.47;;;;;;;;;;5030504;28;20079;-67
2022/02/21 02:34:25;;;;;;;5.87;1.40;;;;;;;;;;5024774;28;20032;-67
2022/02/21 02:36:51;;;;;;;9.53;1.90;;;;;;;;;;5026558;28;20029;-67
2022/02/21 02:39:16;;;;;;;14.40;2.07;;;;;;;;;;5022669;28;20471;-67
2022/02/21 02:41:42;;;;;;;6.90;1.10;;;;;;;;;;5022125;28;20101;-67
2022/02/21 02:44:07;;;;;;;7.83;1.77;;;;;;;;;;5030292;28;20083;-67
2022/02/21 02:46:32;;;;;;;12.53;2.17;;;;;;;;;;5024424;28;20106;-67
2022/02/21 02:48:57;;;;;;;7.67;2.17;;;;;;;;;;5023006;28;20078;-67
2022/02/21 02:51:23;;;;;;;6.07;1.33;;;;;;;;;;5025529;28;20428;-67
2022/02/21 02:53:49;;;;;;;10.50;1.70;;;;;;;;;;5027089;28;20121;-67
2022/02/21 02:56:14;;;;;;;6.93;1.43;;;;;;;;;;5026581;28;20040;-67
2022/02/21 02:58:39;;;;;;;4.00;1.60;;;;;;;;;;5023084;28;20056;-67
2022/02/21 03:01:05;;;;;;;7.33;1.40;;;;;;;;;;5034247;28;20035;-67
2022/02/21 03:03:31;;;;;;;8.30;1.73;;;;;;;;;;5021324;28;20037;-67
2022/02/21 03:05:56;;;;;;;11.93;1.90;;;;;;;;;;5011807;28;20092;-67
2022/02/21 03:08:22;;;;;;;5.70;1.87;;;;;;;;;;5014729;28;20017;-67
2022/02/21 03:10:47;;;;;;;9.97;1.87;;;;;;;;;;5005505;28;20064;-67
2022/02/21 03:13:12;;;;;;;3.77;1.47;;;;;;;;;;5019850;28;20045;-67
2022/02/21 03:15:38;;;;;;;13.20;3.17;;;;;;;;;;5007438;28;20084;-67
2022/02/21 03:18:03;;;;;;;10.17;2.00;;;;;;;;;;5011952;28;20029;-67
2022/02/21 03:20:28;;;;;;;10.77;1.40;;;;;;;;;;5017122;28;20030;-67
2022/02/21 03:22:54;;;;;;;9.07;1.80;;;;;;;;;;5015652;28;20052;-67
2022/02/21 03:25:19;;;;;;;7.23;2.27;;;;;;;;;;5012483;28;20018;-66
2022/02/21 03:27:44;;;;;;;7.77;1.70;;;;;;;;;;5017361;28;20025;-68
2022/02/21 03:30:11;;;;;;;6.23;1.50;;;;;;;;;;5015625;28;20032;-68
2022/02/21 03:32:36;;;;;;;10.77;2.30;;;;;;;;;;5009977;28;20468;-68
2022/02/21 03:35:02;;;;;;;7.17;1.30;;;;;;;;;;5013833;28;20037;-67
2022/02/21 03:37:27;;;;;;;5.50;1.30;;;;;;;;;;5019326;28;20017;-68
2022/02/21 03:39:52;;;;;;;11.20;1.77;;;;;;;;;;5001996;28;20539;-68
2022/02/21 03:42:17;;;;;;;15.30;2.70;;;;;;;;;;5019034;28;20026;-68
2022/02/21 03:44:43;;;;;;;16.07;1.83;;;;;;;;;;5014937;28;20083;-68
2022/02/21 03:47:08;;;;;;;7.60;1.53;;;;;;;;;;5009282;28;20484;-67
2022/02/21 03:49:33;;;;;;;9.40;1.97;;;;;;;;;;5003136;28;20022;-68
2022/02/21 03:51:59;;;;;;;8.63;1.93;;;;;;;;;;5012556;28;20025;-70
2022/02/21 03:54:24;;;;;;;6.90;1.40;;;;;;;;;;5021031;28;20064;-68
2022/02/21 03:56:49;;;;;;;5.80;1.50;;;;;;;;;;5009315;28;20026;-67
2022/02/21 03:59:14;;;;;;;5.73;1.90;;;;;;;;;;5016239;28;20051;-67
2022/02/21 04:01:40;;;;;;;5.73;1.47;;;;;;;;;;5007166;28;20025;-67
2022/02/21 04:04:05;;;;;;;5.90;1.63;;;;;;;;;;5007871;28;20521;-67
2022/02/21 04:06:30;;;;;;;7.73;1.70;;;;;;;;;;5011422;28;20722;-67
2022/02/21 04:08:55;;;;;;;10.30;1.83;;;;;;;;;;5007715;28;20827;-67
2022/02/21 04:11:21;;;;;;;8.33;2.60;;;;;;;;;;5018739;28;20096;-67
2022/02/21 04:13:46;;;;;;;12.23;1.60;;;;;;;;;;5015709;28;20420;-67
2022/02/21 04:16:11;;;;;;;6.93;1.77;;;;;;;;;;5009257;28;20032;-67
2022/02/21 04:18:36;;;;;;;5.13;1.00;;;;;;;;;;5010720;28;20052;-67
2022/02/21 04:21:02;;;;;;;5.57;1.93;;;;;;;;;;5008190;28;20030;-67
2022/02/21 04:23:27;;;;;;;11.33;1.50;;;;;;;;;;5010121;28;20108;-67
2022/02/21 04:25:52;;;;;;;3.47;1.30;;;;;;;;;;5016154;28;20408;-67
2022/02/21 04:28:18;;;;;;;7.20;1.47;;;;;;;;;;5011737;28;20576;-67
2022/02/21 04:30:43;;;;;;;5.80;1.23;;;;;;;;;;5005375;28;20067;-67
2022/02/21 04:33:08;;;;;;;14.73;2.23;;;;;;;;;;5018937;28;20018;-67
2022/02/21 04:35:34;;;;;;;4.13;1.03;;;;;;;;;;5020105;28;20797;-66
2022/02/21 04:37:59;;;;;;;8.00;1.50;;;;;;;;;;5020773;28;20762;-66
2022/02/21 04:40:26;;;;;;;12.27;1.77;;;;;;;;;;5013483;28;20029;-67
2022/02/21 04:42:53;;;;;;;6.17;1.70;;;;;;;;;;5009137;28;20033;-67
2022/02/21 04:45:18;;;;;;;5.03;1.37;;;;;;;;;;5021924;28;20021;-67
2022/02/21 04:47:43;;;;;;;3.83;1.20;;;;;;;;;;5018830;28;20095;-66
2022/02/21 04:50:09;;;;;;;7.73;1.53;;;;;;;;;;5019791;28;20093;-66
2022/02/21 04:52:35;;;;;;;4.63;1.63;;;;;;;;;;5017625;28;20466;-67
2022/02/21 04:55:01;;;;;;;13.40;2.17;;;;;;;;;;5022803;28;20033;-66
2022/02/21 04:57:26;;;;;;;10.40;1.97;;;;;;;;;;5008429;28;20025;-66
2022/02/21 04:59:51;;;;;;;8.53;1.57;;;;;;;;;;5018004;28;20758;-67
2022/02/21 05:02:17;;;;;;;12.20;2.30;;;;;;;;;;5019546;28;20105;-69
2022/02/21 05:04:42;;;;;;;7.33;1.70;;;;;;;;;;5012793;28;20041;-69
2022/02/21 05:07:07;;;;;;;7.40;1.10;;;;;;;;;;5021942;28;20025;-69
2022/02/21 05:09:32;;;;;;;2.23;1.47;;;;;;;;;;5013700;28;20616;-69
2022/02/21 05:11:58;;;;;;;4.70;1.60;;;;;;;;;;5013538;28;20026;-66
2022/02/21 05:14:24;;;;;;;7.73;2.17;;;;;;;;;;5017484;28;20029;-66
2022/02/21 05:16:50;;;;;;;8.07;1.83;;;;;;;;;;5020034;28;20505;-66
2022/02/21 05:19:15;;;;;;;5.90;1.83;;;;;;;;;;5021534;28;20064;-66
2022/02/21 05:21:40;;;;;;;5.97;1.40;;;;;;;;;;5019736;28;20070;-67
2022/02/21 05:24:06;;;;;;;4.50;1.70;;;;;;;;;;5018231;28;20041;-67
2022/02/21 05:26:31;;;;;;;6.17;1.67;;;;;;;;;;5021942;28;20017;-67
2022/02/21 05:28:56;;;;;;;9.60;1.60;;;;;;;;;;5014773;28;20032;-67
2022/02/21 05:31:22;;;;;;;8.00;2.03;;;;;;;;;;5017665;28;20029;-70
2022/02/21 05:33:47;;;;;;;6.57;1.93;;;;;;;;;;5018046;28;20068;-68
2022/02/21 05:36:12;;;;;;;7.33;1.43;;;;;;;;;;5015809;28;20040;-68
2022/02/21 05:38:38;;;;;;;4.87;1.30;;;;;;;;;;5016073;28;20033;-68
2022/02/21 05:41:03;;;;;;;20.70;2.43;;;;;;;;;;5021463;28;20030;-68
2022/02/21 05:43:28;;;;;;;5.70;1.60;;;;;;;;;;5013194;28;20065;-68
2022/02/21 05:45:53;;;;;;;7.30;2.23;;;;;;;;;;5013878;28;20056;-68
2022/02/21 05:48:19;;;;;;;6.40;1.60;;;;;;;;;;5012263;28;20026;-68
2022/02/21 05:50:44;;;;;;;6.43;1.30;;;;;;;;;;5018543;28;20773;-68
2022/02/21 05:53:11;;;;;;;4.03;1.93;;;;;;;;;;5015758;28;20017;-68
2022/02/21 05:55:36;;;;;;;4.73;1.57;;;;;;;;;;5019750;28;20437;-68
2022/02/21 05:58:01;;;;;;;6.47;1.20;;;;;;;;;;5005223;28;20104;-68
2022/02/21 06:00:27;;;;;;;12.60;2.20;;;;;;;;;;5014129;28;20053;-68
2022/02/21 06:02:52;;;;;;;4.77;1.77;;;;;;;;;;5013906;28;20065;-68
2022/02/21 06:05:18;;;;;;;11.07;1.70;;;;;;;;;;5019007;28;20060;-68
2022/02/21 06:07:43;;;;;;;6.47;1.53;;;;;;;;;;5017001;28;20020;-68
2022/02/21 06:10:09;;;;;;;11.20;3.80;;;;;;;;;;5020472;28;20445;-68
2022/02/21 06:12:34;;;;;;;11.77;1.90;;;;;;;;;;5017342;28;20104;-68
2022/02/21 06:14:59;;;;;;;2.97;1.53;;;;;;;;;;5020638;28;20087;-68
2022/02/21 06:17:24;;;;;;;8.53;1.50;;;;;;;;;;5016042;28;20756;-68
2022/02/21 06:19:50;;;;;;;4.90;1.70;;;;;;;;;;5022836;28;20059;-68
2022/02/21 06:22:15;;;;;;;6.03;2.03;;;;;;;;;;5012192;28;20080;-68
2022/02/21 06:24:40;;;;;;;3.80;1.37;;;;;;;;;;5014013;28;20527;-69
2022/02/21 06:27:05;;;;;;;6.10;1.63;;;;;;;;;;5017492;28;20017;-68
2022/02/21 06:29:31;;;;;;;5.90;1.33;;;;;;;;;;5022108;28;20025;-68
2022/02/21 06:31:56;;;;;;;7.70;1.70;;;;;;;;;;5016454;28;20470;-68
2022/02/21 06:34:21;;;;;;;7.53;1.30;;;;;;;;;;5004990;28;20032;-69
2022/02/21 06:36:46;;;;;;;7.03;1.80;;;;;;;;;;5011391;28;20057;-69
2022/02/21 06:39:12;;;;;;;4.27;1.33;;;;;;;;;;5013744;28;20056;-68
2022/02/21 06:41:37;;;;;;;4.13;1.30;;;;;;;;;;5017830;28;20026;-68
2022/02/21 06:44:02;;;;;;;8.47;1.73;;;;;;;;;;5021750;28;20041;-68
2022/02/21 06:46:28;;;;;;;6.63;1.80;;;;;;;;;;5008085;28;20022;-68
2022/02/21 06:48:53;;;;;;;4.00;1.53;;;;;;;;;;5007506;28;20109;-68
2022/02/21 06:51:18;;;;;;;11.27;2.60;;;;;;;;;;5015094;28;20097;-68
2022/02/21 06:53:44;;;;;;;7.63;1.60;;;;;;;;;;5008884;28;20029;-68
2022/02/21 06:56:10;;;;;;;13.93;1.90;;;;;;;;;;5012885;28;20048;-68
2022/02/21 06:58:36;;;;;;;13.40;1.73;;;;;;;;;;5010287;28;20061;-68
2022/02/21 07:01:01;;;;;;;11.00;1.87;;;;;;;;;;5014143;28;20059;-68
2022/02/21 07:03:26;;;;;;;11.33;1.80;;;;;;;;;;5011324;28;20676;-69
2022/02/21 07:05:51;;;;;;;9.37;1.63;;;;;;;;;;5016780;28;20037;-69
2022/02/21 07:08:17;;;;;;;7.63;1.40;;;;;;;;;;5017713;28;20100;-69
2022/02/21 07:10:42;;;;;;;6.23;1.60;;;;;;;;;;5021943;28;20017;-69
2022/02/21 07:13:08;;;;;;;3.00;1.00;;;;;;;;;;5015055;28;20443;-69
2022/02/21 07:15:33;;;;;;;6.47;1.50;;;;;;;;;;5002299;28;20817;-69
2022/02/21 07:17:58;;;;;;;6.80;1.97;;;;;;;;;;5007275;28;20060;-69
2022/02/21 07:20:25;;;;;;;8.93;1.90;;;;;;;;;;5017930;28;20053;-70
2022/02/21 07:22:50;;;;;;;4.83;1.23;;;;;;;;;;5012785;28;20040;-69
2022/02/21 07:25:16;;;;;;;6.77;1.87;;;;;;;;;;5001837;28;20026;-69
2022/02/21 07:27:41;;;;;;;6.50;1.93;;;;;;;;;;5012343;28;20036;-70
2022/02/21 07:30:07;;;;;;;7.63;1.80;;;;;;;;;;5005027;28;20026;-69
2022/02/21 07:32:34;;;;;;;13.17;1.80;;;;;;;;;;5003204;28;20030;-69
2022/02/21 07:34:59;;;;;;;3.67;1.70;;;;;;;;;;5021585;28;20367;-69
2022/02/21 07:37:24;;;;;;;7.50;2.37;;;;;;;;;;5013162;28;20121;-69
2022/02/21 07:39:49;;;;;;;5.00;1.10;;;;;;;;;;5021545;28;20036;-69
2022/02/21 07:42:15;;;;;;;4.60;1.67;;;;;;;;;;5021345;28;20034;-69
2022/02/21 07:44:40;;;;;;;6.43;1.30;;;;;;;;;;5002323;28;20211;-69
2022/02/21 07:47:05;;;;;;;11.40;1.70;;;;;;;;;;5002170;28;20061;-67
2022/02/21 07:49:31;;;;;;;9.77;1.80;;;;;;;;;;5018336;28;20040;-67
2022/02/21 07:51:56;;;;;;;9.47;2.67;;;;;;;;;;5001833;28;20101;-69
2022/02/21 07:54:21;;;;;;;10.57;1.53;;;;;;;;;;5017787;28;20037;-69
2022/02/21 07:56:47;;;;;;;7.40;1.27;;;;;;;;;;5018497;28;20037;-69
2022/02/21 07:59:12;;;;;;;10.93;2.07;;;;;;;;;;5016665;28;20547;-69
2022/02/21 08:01:37;;;;;;;6.33;1.50;;;;;;;;;;5020285;28;20083;-69
2022/02/21 08:04:03;;;;;;;13.90;2.50;;;;;;;;;;5011411;28;20051;-70
2022/02/21 08:06:28;;;;;;;10.63;1.50;;;;;;;;;;5003863;28;20105;-69
2022/02/21 08:08:53;;;;;;;9.50;1.80;;;;;;;;;;5021671;28;20522;-70
2022/02/21 08:11:19;;;;;;;7.57;1.27;;;;;;;;;;5025237;28;20785;-69
2022/02/21 08:13:44;;;;;;;6.47;1.30;;;;;;;;;;5018278;28;20059;-69
2022/02/21 08:16:09;;;;;;;6.30;1.10;;;;;;;;;;5022267;28;20030;-69
2022/02/21 08:18:35;;;;;;;9.03;1.50;;;;;;;;;;5015640;28;20029;-69
2022/02/21 08:21:00;;;;;;;4.63;1.37;;;;;;;;;;5024804;28;20485;-69
2022/02/21 08:23:26;;;;;;;10.27;1.87;;;;;;;;;;5018470;28;20167;-69
2022/02/21 08:25:51;;;;;;;5.80;1.73;;;;;;;;;;5023443;28;20033;-69
2022/02/21 08:28:16;;;;;;;4.03;0.90;;;;;;;;;;5020019;28;20051;-69
2022/02/21 08:30:41;;;;;;;22.03;1.80;;;;;;;;;;5008769;28;20025;-69
2022/02/21 08:33:07;;;;;;;11.40;1.77;;;;;;;;;;5011870;28;20033;-69
2022/02/21 08:35:32;;;;;;;8.70;1.37;;;;;;;;;;5024858;28;20258;-69
2022/02/21 08:37:59;;;;;;;6.43;1.87;;;;;;;;;;5019720;28;20036;-69
2022/02/21 08:40:24;;;;;;;8.00;2.30;;;;;;;;;;5005027;28;20026;-69
2022/02/21 08:42:50;;;;;;;5.17;1.57;;;;;;;;;;5008994;28;20405;-69
2022/02/21 08:45:15;;;;;;;4.40;1.50;;;;;;;;;;5016206;28;20107;-69
2022/02/21 08:47:41;;;;;;;4.63;1.07;;;;;;;;;;5017715;28;20058;-69
2022/02/21 08:50:10;;;;;;;7.70;1.80;;;;;;;;;;5012530;28;20478;-69
2022/02/21 08:52:35;;;;;;;8.37;1.77;;;;;;;;;;5012467;28;20652;-69
2022/02/21 08:55:00;;;;;;;11.03;2.13;;;;;;;;;;5024385;28;20041;-69
2022/02/21 08:57:27;;;;;;;12.10;1.87;;;;;;;;;;5023680;28;20029;-69
2022/02/21 08:59:52;;;;;;;9.87;1.70;;;;;;;;;;5024124;28;20116;-69
2022/02/21 09:02:19;;;;;;;5.30;1.60;;;;;;;;;;5018758;28;20121;-69
2022/02/21 09:04:44;;;;;;;6.93;1.40;;;;;;;;;;5020058;28;20025;-69
2022/02/21 09:07:09;;;;;;;8.37;2.20;;;;;;;;;;5004433;28;20091;-69
2022/02/21 09:09:34;;;;;;;5.37;1.23;;;;;;;;;;5020910;28;20021;-69
2022/02/21 09:12:00;;;;;;;9.57;1.83;;;;;;;;;;5016308;28;20022;-69
2022/02/21 09:14:25;;;;;;;9.73;2.80;;;;;;;;;;5004218;28;20030;-69
2022/02/21 09:16:51;;;;;;;4.37;1.10;;;;;;;;;;5003606;28;20082;-69
2022/02/21 09:19:17;;;;;;;5.50;1.80;;;;;;;;;;5017766;28;20021;-69
2022/02/21 09:21:42;;;;;;;12.13;1.70;;;;;;;;;;5010203;28;20080;-69
2022/02/21 09:24:07;;;;;;;7.30;1.60;;;;;;;;;;5018025;28;20482;-69
2022/02/21 09:26:32;;;;;;;7.13;1.50;;;;;;;;;;5018047;28;20054;-69
2022/02/21 09:28:58;;;;;;;6.50;1.43;;;;;;;;;;5022137;28;20553;-69
2022/02/21 09:31:24;;;;;;;7.00;1.73;;;;;;;;;;5022260;28;20388;-69
2022/02/21 09:33:49;;;;;;;7.53;1.20;;;;;;;;;;5021273;28;20030;-69
2022/02/21 09:36:15;;;;;;;8.87;2.60;;;;;;;;;;5022559;28;20056;-69
2022/02/21 09:38:40;;;;;;;8.93;2.13;;;;;;;;;;5022768;28;20064;-69
2022/02/21 09:41:05;;;;;;;7.70;1.63;;;;;;;;;;5023739;28;20028;-69
2022/02/21 09:43:31;;;;;;;6.97;1.87;;;;;;;;;;5013694;28;20030;-69
2022/02/21 09:45:57;;;;;;;8.87;1.70;;;;;;;;;;5003923;28;20101;-69
2022/02/21 09:48:24;;;;;;;11.37;1.90;;;;;;;;;;5016407;28;20026;-69
2022/02/21 09:50:50;;;;;;;6.33;1.47;;;;;;;;;;5011913;28;20020;-69
2022/02/21 09:53:15;;;;;;;8.60;1.63;;;;;;;;;;5003724;28;20041;-69
2022/02/21 09:55:42;;;;;;;10.80;1.87;;;;;;;;;;5003516;28;20025;-69
2022/02/21 09:58:07;;;;;;;5.57;1.93;;;;;;;;;;5009866;28;20052;-69
2022/02/21 10:00:32;;;;;;;8.00;1.57;;;;;;;;;;5022963;28;20659;-69
2022/02/21 10:02:58;;;;;;;5.37;1.60;;;;;;;;;;5022715;28;20059;-69
2022/02/21 10:05:26;;;;;;;10.20;2.00;;;;;;;;;;5011991;28;20038;-69
2022/02/21 10:07:52;;;;;;;5.77;2.20;;;;;;;;;;5004854;28;20014;-69
2022/02/21 10:10:18;;;;;;;8.57;1.90;;;;;;;;;;5004650;28;20021;-69
2022/02/21 10:12:54;;;;;;;8.90;1.70;;;;;;;;;;5020590;28;20563;-69
2022/02/21 10:15:24;;;;;;;9.37;1.80;;;;;;;;;;5020527;28;20040;-69
2022/02/21 10:17:49;;;;;;;8.23;1.63;;;;;;;;;;5022278;28;20051;-68
2022/02/21 10:20:16;;;;;;;5.17;1.67;;;;;;;;;;5022607;28;20075;-69
2022/02/21 10:22:59;;;;;;;5.77;1.60;;;;;;;;;;5017123;28;20057;-68
2022/02/21 10:25:24;;;;;;;5.87;1.77;;;;;;;;;;5002665;28;20018;-68
2022/02/21 10:27:49;;;;;;;4.87;1.33;;;;;;;;;;5013212;28;20082;-69
2022/02/21 10:30:16;;;;;;;4.07;1.57;;;;;;;;;;5018795;28;20113;-68
2022/02/21 10:32:43;;;;;;;8.17;2.30;;;;;;;;;;5006623;28;20060;-68
2022/02/21 10:35:10;;;;;;;6.47;1.53;;;;;;;;;;5022696;28;20691;-68
2022/02/21 10:37:40;;;;;;;5.03;1.50;;;;;;;;;;5020277;28;20031;-68
2022/02/21 10:40:07;;;;;;;14.63;2.63;;;;;;;;;;5002855;28;20036;-68
2022/02/21 10:42:32;;;;;;;7.73;1.67;;;;;;;;;;5004131;28;20026;-68
2022/02/21 10:45:08;;;;;;;6.23;1.50;;;;;;;;;;5022460;28;20244;-68
2022/02/21 10:47:34;;;;;;;5.27;1.90;;;;;;;;;;5008458;28;20372;-68
2022/02/21 10:50:00;;;;;;;6.20;2.00;;;;;;;;;;5017610;28;20048;-68
2022/02/21 10:52:26;;;;;;;6.40;1.30;;;;;;;;;;5003683;28;20053;-68
2022/02/21 10:54:52;;;;;;;10.00;1.93;;;;;;;;;;5020777;28;20029;-68
2022/02/21 10:57:18;;;;;;;5.60;1.67;;;;;;;;;;5013581;28;20597;-68
2022/02/21 10:59:44;;;;;;;3.27;1.00;;;;;;;;;;5010161;28;20072;-69
2022/02/21 11:02:10;;;;;;;3.03;1.20;;;;;;;;;;5021690;28;20086;-68
2022/02/21 11:04:37;;;;;;;5.00;1.10;;;;;;;;;;5019695;28;20064;-68
2022/02/21 11:07:03;;;;;;;2.20;1.30;;;;;;;;;;5021830;28;20025;-68
2022/02/21 11:09:29;;;;;;;9.00;1.90;;;;;;;;;;5021636;28;20112;-68
2022/02/21 11:11:55;;;;;;;5.17;1.30;;;;;;;;;;5022102;28;20520;-68
2022/02/21 11:14:26;;;;;;;5.93;2.03;;;;;;;;;;5005875;28;20045;-68
2022/02/21 11:16:52;;;;;;;4.25;1.50;;;;;;;;;;5002029;28;20056;-68
2022/02/21 11:19:18;;;;;;;6.40;1.93;;;;;;;;;;5006241;28;20105;-68
2022/02/21 11:21:44;;;;;;;6.83;1.73;;;;;;;;;;5008401;28;20044;-68
2022/02/21 11:24:11;;;;;;;5.63;1.53;;;;;;;;;;5020855;28;20025;-68
2022/02/21 11:26:38;;;;;;;14.33;1.70;;;;;;;;;;5005376;28;20486;-68
2022/02/21 11:29:07;;;;;;;4.93;1.47;;;;;;;;;;5019966;28;20052;-68
2022/02/21 11:31:32;;;;;;;4.73;1.50;;;;;;;;;;5002871;28;20540;-68
2022/02/21 11:34:02;;;;;;;5.63;2.27;;;;;;;;;;5014995;28;20021;-68
2022/02/21 11:36:27;;;;;;;6.80;1.90;;;;;;;;;;5021609;28;20041;-68
2022/02/21 11:38:54;;;;;;;3.37;1.80;;;;;;;;;;5009044;28;20048;-68
2022/02/21 11:41:19;;;;;;;3.70;1.90;;;;;;;;;;5001995;28;20022;-68
2022/02/21 11:43:45;;;;;;;5.23;1.90;;;;;;;;;;5012862;28;20032;-68
2022/02/21 11:46:31;;;;;;;8.67;1.60;;;;;;;;;;5021411;28;20025;-69
2022/02/21 11:48:56;;;;;;;3.03;1.70;;;;;;;;;;5007807;28;20033;-69
2022/02/21 11:51:31;;;;;;;5.50;2.10;;;;;;;;;;5010532;28;20068;-69
2022/02/21 11:54:16;;;;;;;10.07;1.70;;;;;;;;;;5016142;28;20029;-68
2022/02/21 11:56:47;;;;;;;3.37;1.60;;;;;;;;;;5006369;28;20382;-68
2022/02/21 11:59:21;;;;;;;4.10;2.05;;;;;;;;;;5004155;28;20359;-69
2022/02/21 12:01:59;;;;;;;3.27;1.80;;;;;;;;;;5016590;28;20117;-69
2022/02/21 12:04:24;;;;;;;4.60;1.60;;;;;;;;;;5004145;28;20561;-68
2022/02/21 12:06:50;;;;;;;5.83;1.47;;;;;;;;;;5001689;28;20148;-68
2022/02/21 12:09:15;;;;;;;3.70;1.50;;;;;;;;;;5005890;28;20018;-68
2022/02/21 12:11:40;;;;;;;3.87;1.83;;;;;;;;;;5003647;28;20044;-68
2022/02/21 12:14:11;;;;;;;3.23;1.53;;;;;;;;;;5018008;28;20040;-69
2022/02/21 12:16:55;;;;;;;5.60;1.92;;;;;;;;;;5008369;28;20029;-68
2022/02/21 12:19:28;;;;;;;5.63;1.60;;;;;;;;;;5005070;28;20038;-68
2022/02/21 12:22:09;;;;;;;2.70;1.23;;;;;;;;;;5007991;28;20382;-68
2022/02/21 12:24:35;;;;;;;2.65;1.25;;;;;;;;;;5001549;28;20073;-68
2022/02/21 12:27:11;;;;;;;3.30;1.33;;;;;;;;;;5007479;28;20052;-68
2022/02/21 12:29:39;;;;;;;5.93;1.50;;;;;;;;;;5016226;28;20025;-68
2022/02/21 12:32:05;;;;;;;3.70;1.33;;;;;;;;;;5016021;28;20014;-68
2022/02/21 12:34:32;;;;;;;3.80;1.00;;;;;;;;;;5017379;28;20390;-68
2022/02/21 12:36:58;;;;;;;2.50;1.20;;;;;;;;;;5004541;28;20472;-68
2022/02/21 12:39:26;;;;;;;3.40;1.47;;;;;;;;;;5020583;28;20037;-68
2022/02/21 12:41:52;;;;;;;6.10;1.30;;;;;;;;;;5016786;28;20025;-68
2022/02/21 12:44:18;;;;;;;7.23;1.70;;;;;;;;;;5016849;28;20099;-68
2022/02/21 12:47:05;;;;;;;3.90;1.43;;;;;;;;;;5016616;28;20021;-68
2022/02/21 12:49:42;;;;;;;2.37;1.10;;;;;;;;;;5003978;28;20042;-68
2022/02/21 12:52:08;;;;;;;2.30;1.23;;;;;;;;;;5015483;28;20021;-68
2022/02/21 12:54:37;;;;;;;1.60;0.80;;;;;;;;;;5022666;28;20477;-68
2022/02/21 12:57:03;;;;;;;2.73;1.10;;;;;;;;;;5024529;28;20488;-68
2022/02/21 12:59:30;;;;;;;5.87;1.40;;;;;;;;;;5020930;28;20390;-68
2022/02/21 13:01:56;;;;;;;3.07;1.10;;;;;;;;;;5024150;28;20025;-68
2022/02/21 13:04:23;;;;;;;2.20;1.00;;;;;;;;;;5007488;28;20494;-69
2022/02/21 13:06:49;;;;;;;1.50;0.70;;;;;;;;;;5004339;28;20022;-68
2022/02/21 13:09:17;;;;;;;3.70;1.00;;;;;;;;;;5007977;28;20056;-68
2022/02/21 13:11:44;;;;;;;1.77;0.90;;;;;;;;;;5004605;28;20049;-68
2022/02/21 13:14:09;;;;;;;2.43;0.93;;;;;;;;;;5018496;28;20033;-69
2022/02/21 13:16:49;;;;;;;3.13;1.03;;;;;;;;;;5017718;28;20026;-68
2022/02/21 13:19:15;;;;;;;2.23;0.70;;;;;;;;;;5008759;28;20038;-68
2022/02/21 13:21:43;;;;;;;1.77;1.00;;;;;;;;;;5017889;28;20033;-68
2022/02/21 13:24:10;;;;;;;3.13;1.00;;;;;;;;;;5009026;28;20038;-68
2022/02/21 13:26:47;;;;;;;1.23;0.73;;;;;;;;;;5007108;28;20021;-68
2022/02/21 13:29:24;;;;;;;1.17;0.90;;;;;;;;;;5022191;28;20029;-68
2022/02/21 13:31:49;;;;;;;1.87;0.90;;;;;;;;;;5022280;28;20060;-68
2022/02/21 13:34:15;;;;;;;5.30;1.00;;;;;;;;;;5020163;28;20469;-68
2022/02/21 13:36:40;;;;;;;1.53;0.70;;;;;;;;;;5023546;28;20053;-68
2022/02/21 13:39:05;;;;;;;1.33;0.87;;;;;;;;;;5009455;28;20223;-68
2022/02/21 13:41:44;;;;;;;2.67;1.20;;;;;;;;;;5004184;28;20026;-69
2022/02/21 13:44:19;;;;;;;2.47;1.00;;;;;;;;;;5018460;28;20022;-69
2022/02/21 13:46:44;;;;;;;1.90;0.97;;;;;;;;;;5023110;28;20021;-69
2022/02/21 13:49:09;;;;;;;2.40;0.93;;;;;;;;;;5008302;28;20022;-68
2022/02/21 13:51:34;;;;;;;1.77;0.90;;;;;;;;;;5008185;28;20018;-68
2022/02/21 13:54:00;;;;;;;1.03;0.80;;;;;;;;;;5015278;28;20056;-68
2022/02/21 13:56:25;;;;;;;2.07;1.17;;;;;;;;;;5022996;28;20033;-68
2022/02/21 13:58:50;;;;;;;1.70;0.80;;;;;;;;;;5020056;28;20032;-68
2022/02/21 14:01:21;;;;;;;1.70;0.90;;;;;;;;;;5023298;28;20049;-68
2022/02/21 14:03:50;;;;;;;1.27;0.80;;;;;;;;;;5018284;28;20052;-68
2022/02/21 14:06:17;;;;;;;2.77;1.03;;;;;;;;;;5003723;28;20264;-68
2022/02/21 14:08:49;;;;;;;3.03;1.30;;;;;;;;;;5014136;28;20026;-69
2022/02/21 14:11:16;;;;;;;1.80;1.00;;;;;;;;;;5023252;28;20625;-68
2022/02/21 14:13:42;;;;;;;1.97;0.93;;;;;;;;;;5011998;28;20488;-69
2022/02/21 14:16:08;;;;;;;1.93;1.00;;;;;;;;;;5013079;28;20021;-68
2022/02/21 14:18:37;;;;;;;3.07;1.30;;;;;;;;;;5022216;28;20025;-68
2022/02/21 14:21:03;;;;;;;3.30;0.80;;;;;;;;;;5021100;28;20512;-68
2022/02/21 14:23:28;;;;;;;2.33;0.90;;;;;;;;;;5019470;28;20732;-68
2022/02/21 14:25:53;;;;;;;1.53;0.90;;;;;;;;;;5022971;28;20028;-68
2022/02/21 14:28:18;;;;;;;2.73;1.00;;;;;;;;;;5021006;28;20475;-68
2022/02/21 14:30:44;;;;;;;2.80;1.00;;;;;;;;;;5013859;28;20045;-68
2022/02/21 14:33:09;;;;;;;1.47;0.97;;;;;;;;;;5015404;28;20032;-68
2022/02/21 14:35:37;;;;;;;2.47;0.80;;;;;;;;;;5022317;28;20022;-68